Time;durP1;ratioP1;P1;durP2;ratioP2;P2;SDS_P1;SDS_P2;PMS_P1;PMS_P2;Temp;Humidity;BMP_temperature;BMP_pressure;BME280_temperature;BME280_humidity;BME280_pressure;Samples;Min_cycle;Max_cycle;Signal;HPM_P1;HPM_P2
2022/11/13 00:00:02;;;;;;;15.73;10.10;;;12.50;32.10;;;;;;5074507;28;20674;-80
2022/11/13 00:02:29;;;;;;;16.20;9.40;;;12.50;29.10;;;;;;5074234;28;20201;-79
2022/11/13 00:04:56;;;;;;;14.03;8.80;;;12.50;96.80;;;;;;5074466;28;20600;-80
2022/11/13 00:07:23;;;;;;;16.90;9.30;;;12.50;99.90;;;;;;5074493;28;20301;-79
2022/11/13 00:09:51;;;;;;;18.13;12.30;;;12.40;99.90;;;;;;5074410;28;20199;-79
2022/11/13 00:12:18;;;;;;;21.57;11.60;;;12.40;1.00;;;;;;5074028;28;20199;-79
2022/11/13 00:14:45;;;;;;;15.93;9.83;;;12.40;1.00;;;;;;5074332;28;20615;-79
2022/11/13 00:17:12;;;;;;;15.53;8.70;;;12.50;1.00;;;;;;5074208;28;20198;-79
2022/11/13 00:19:39;;;;;;;37.80;18.80;;;12.50;1.00;;;;;;5074137;28;20676;-79
2022/11/13 00:22:06;;;;;;;15.87;8.07;;;12.50;1.00;;;;;;5074094;28;20198;-79
2022/11/13 00:24:33;;;;;;;13.97;8.03;;;12.60;1.00;;;;;;5074085;28;20659;-79
2022/11/13 00:27:02;;;;;;;15.83;8.17;;;12.50;1.00;;;;;;5073962;28;20262;-77
2022/11/13 00:29:29;;;;;;;14.43;8.43;;;12.50;1.00;;;;;;5074059;28;20204;-79
2022/11/13 00:31:56;;;;;;;13.87;8.40;;;12.60;1.00;;;;;;5073759;28;20655;-79
2022/11/13 00:34:23;;;;;;;13.57;7.97;;;12.50;1.00;;;;;;5073764;28;20222;-79
2022/11/13 00:36:50;;;;;;;16.77;11.20;;;12.50;1.00;;;;;;5073852;28;20197;-79
2022/11/13 00:39:17;;;;;;;20.73;12.17;;;12.60;1.00;;;;;;5073774;28;20236;-79
2022/11/13 00:41:43;;;;;;;22.93;10.03;;;12.60;1.00;;;;;;5073454;28;20226;-79
2022/11/13 00:44:12;;;;;;;19.67;12.73;;;12.60;1.00;;;;;;5073905;28;20250;-79
2022/11/13 00:46:39;;;;;;;29.07;18.00;;;12.60;1.00;;;;;;5073506;28;20193;-79
2022/11/13 00:49:06;;;;;;;23.80;14.87;;;12.60;99.90;;;;;;5073705;28;20217;-79
2022/11/13 00:51:33;;;;;;;15.23;9.43;;;12.60;99.90;;;;;;5073353;28;20201;-79
2022/11/13 00:54:00;;;;;;;16.10;8.67;;;12.50;99.90;;;;;;5073393;28;20210;-79
2022/11/13 00:56:28;;;;;;;22.57;15.20;;;12.50;99.90;;;;;;5073501;28;20200;-79
2022/11/13 00:58:55;;;;;;;14.90;8.80;;;12.40;99.90;;;;;;5073356;28;20194;-79
2022/11/13 01:01:23;;;;;;;61.53;10.90;;;12.30;99.90;;;;;;5073349;28;20267;-79
2022/11/13 01:03:50;;;;;;;17.27;8.80;;;12.30;1.00;;;;;;5073040;28;20217;-78
2022/11/13 01:06:22;;;;;;;15.97;8.33;;;12.30;1.00;;;;;;5073170;28;20658;-79
2022/11/13 01:08:49;;;;;;;12.40;8.60;;;12.30;1.00;;;;;;5072935;28;20189;-78
2022/11/13 01:11:20;;;;;;;20.03;9.40;;;12.30;1.00;;;;;;5073182;28;20201;-79
2022/11/13 01:13:49;;;;;;;14.40;8.17;;;12.30;48.90;;;;;;5072965;28;20193;-79
2022/11/13 01:16:18;;;;;;;20.63;8.47;;;12.20;5.10;;;;;;5072678;28;20231;-79
2022/11/13 01:18:46;;;;;;;239.00;15.27;;;12.30;1.00;;;;;;5072925;28;20195;-78
2022/11/13 01:21:15;;;;;;;106.87;12.30;;;12.20;33.10;;;;;;5072383;28;20542;-78
2022/11/13 01:23:42;;;;;;;35.57;10.50;;;12.20;99.90;;;;;;5072928;28;20200;-79
2022/11/13 01:26:12;;;;;;;46.70;9.80;;;12.20;99.90;;;;;;5072667;28;20254;-80
2022/11/13 01:28:40;;;;;;;82.30;11.47;;;12.20;99.90;;;;;;5072562;28;20196;-79
2022/11/13 01:31:08;;;;;;;21.60;9.13;;;12.20;99.90;;;;;;5072636;28;20246;-80
2022/11/13 01:33:35;;;;;;;27.87;10.47;;;12.20;99.90;;;;;;5072823;28;20208;-79
2022/11/13 01:36:06;;;;;;;20.17;9.83;;;12.20;99.90;;;;;;5072673;28;20227;-79
2022/11/13 01:38:33;;;;;;;108.33;13.77;;;12.20;99.90;;;;;;5072679;28;20189;-79
2022/11/13 01:41:00;;;;;;;49.07;10.90;;;12.30;92.50;;;;;;5072725;28;20227;-80
2022/11/13 01:43:30;;;;;;;20.13;9.60;;;12.30;1.00;;;;;;5072671;28;20198;-78
2022/11/13 01:46:17;;;;;;;20.47;10.10;;;12.30;71.70;;;;;;5072824;28;20194;-80
2022/11/13 01:48:47;;;;;;;19.33;9.43;;;12.30;99.90;;;;;;5072628;28;20182;-78
2022/11/13 01:51:22;;;;;;;18.87;8.20;;;12.30;1.00;;;;;;5072957;28;20226;-79
2022/11/13 01:53:50;;;;;;;18.97;8.10;;;12.20;82.20;;;;;;5072630;28;20267;-78
2022/11/13 01:59:11;;;;;;;15.73;8.53;;;12.20;71.50;;;;;;5072381;28;20652;-79
2022/11/13 02:01:38;;;;;;;10.60;7.93;;;12.10;99.90;;;;;;5072263;28;20180;-79
2022/11/13 02:04:06;;;;;;;13.00;8.13;;;12.10;99.90;;;;;;5072540;28;20659;-79
2022/11/13 02:06:40;;;;;;;13.70;8.27;;;12.10;99.90;;;;;;5072471;28;20254;-79
2022/11/13 02:09:09;;;;;;;10.40;8.03;;;12.10;99.90;;;;;;5072421;28;20267;-78
2022/11/13 02:11:37;;;;;;;16.23;9.03;;;12.10;1.00;;;;;;5072396;28;20659;-79
2022/11/13 02:14:06;;;;;;;19.73;8.83;;;12.10;1.00;;;;;;5072564;28;20197;-79
2022/11/13 02:16:36;;;;;;;17.90;9.23;;;12.10;99.90;;;;;;5076456;28;20220;-78
2022/11/13 02:19:10;;;;;;;17.50;8.90;;;12.00;99.90;;;;;;5076209;28;20181;-78
2022/11/13 02:21:48;;;;;;;17.77;9.63;;;12.00;1.00;;;;;;5076506;28;20209;-80
2022/11/13 02:24:27;;;;;;;28.57;9.53;;;12.00;1.00;;;;;;5076708;28;20188;-78
2022/11/13 02:26:58;;;;;;;14.20;5.27;;;11.90;1.00;;;;;;5076060;28;20184;-79
2022/11/13 02:29:25;;;;;;;14.63;7.20;;;11.90;1.00;;;;;;5076126;28;20576;-79
2022/11/13 02:31:52;;;;;;;12.50;8.03;;;11.90;1.00;;;;;;5075899;28;20223;-80
2022/11/13 02:34:19;;;;;;;15.87;8.53;;;11.90;74.30;;;;;;5076219;28;20195;-80
2022/11/13 02:36:46;;;;;;;20.20;8.30;;;12.00;29.50;;;;;;5075799;28;20275;-79
2022/11/13 02:39:14;;;;;;;13.07;7.43;;;12.00;1.00;;;;;;5076081;28;20194;-78
2022/11/13 02:41:42;;;;;;;14.17;8.03;;;12.00;1.00;;;;;;5076048;28;20254;-78
2022/11/13 02:44:09;;;;;;;17.87;7.33;;;12.10;1.00;;;;;;5076008;28;20197;-79
2022/11/13 02:46:37;;;;;;;13.27;7.33;;;12.10;1.00;;;;;;5075644;28;20252;-79
2022/11/13 02:49:05;;;;;;;18.70;8.37;;;12.20;1.00;;;;;;5075570;28;20209;-79
2022/11/13 02:51:32;;;;;;;15.20;7.67;;;12.20;99.90;;;;;;5075997;28;20243;-79
2022/11/13 02:53:59;;;;;;;15.80;7.70;;;12.20;99.90;;;;;;5075825;28;20200;-78
2022/11/13 02:56:26;;;;;;;12.97;7.43;;;12.20;99.90;;;;;;5075822;28;20215;-78
2022/11/13 02:58:55;;;;;;;13.37;7.60;;;12.20;99.90;;;;;;5075712;28;20653;-79
2022/11/13 03:01:22;;;;;;;17.80;8.07;;;12.20;99.90;;;;;;5075536;28;20200;-79
2022/11/13 03:03:49;;;;;;;12.57;7.37;;;12.20;99.90;;;;;;5075708;28;20556;-79
2022/11/13 03:06:16;;;;;;;15.63;7.93;;;12.20;99.90;;;;;;5075450;28;20197;-78
2022/11/13 03:08:43;;;;;;;14.00;7.90;;;12.20;1.00;;;;;;5075401;28;20192;-80
2022/11/13 03:11:12;;;;;;;15.50;8.07;;;12.20;1.00;;;;;;5075466;28;20191;-79
2022/11/13 03:13:40;;;;;;;15.30;7.87;;;12.20;1.00;;;;;;5075413;28;20197;-79
2022/11/13 03:16:13;;;;;;;17.37;7.10;;;12.20;99.90;;;;;;5074961;28;20257;-79
2022/11/13 03:18:40;;;;;;;16.30;7.10;;;12.20;99.90;;;;;;5075017;28;20181;-79
2022/11/13 03:21:10;;;;;;;13.17;7.17;;;12.20;99.90;;;;;;5075325;28;20196;-80
2022/11/13 03:23:38;;;;;;;11.77;6.70;;;12.10;1.00;;;;;;5075020;28;20196;-79
2022/11/13 03:26:06;;;;;;;15.63;7.37;;;12.00;1.00;;;;;;5074991;28;20266;-79
2022/11/13 03:28:34;;;;;;;12.13;6.87;;;12.00;82.00;;;;;;5075158;28;20203;-79
2022/11/13 03:31:01;;;;;;;17.17;7.77;;;12.00;99.90;;;;;;5075176;28;20193;-78
2022/11/13 03:33:30;;;;;;;15.87;8.07;;;12.00;99.90;;;;;;5074802;28;20216;-78
2022/11/13 03:35:57;;;;;;;14.67;8.13;;;12.00;99.90;;;;;;5074961;28;20287;-79
2022/11/13 03:38:24;;;;;;;12.07;6.90;;;12.00;1.00;;;;;;5075056;28;20195;-79
2022/11/13 03:40:51;;;;;;;12.80;6.70;;;12.00;1.00;;;;;;5074937;28;20203;-79
2022/11/13 03:43:19;;;;;;;11.23;6.00;;;12.00;1.00;;;;;;5075086;28;20200;-79
2022/11/13 03:45:47;;;;;;;10.23;6.40;;;12.10;1.00;;;;;;5074840;28;20194;-79
2022/11/13 03:48:15;;;;;;;8.47;5.43;;;12.10;99.90;;;;;;5074548;28;20197;-79
2022/11/13 03:50:46;;;;;;;9.23;5.50;;;12.10;99.90;;;;;;5074390;28;20240;-79
2022/11/13 03:53:14;;;;;;;10.70;5.77;;;12.10;99.90;;;;;;5074856;28;20188;-79
2022/11/13 03:55:41;;;;;;;12.73;6.17;;;12.20;99.90;;;;;;5074255;28;20628;-79
2022/11/13 03:58:08;;;;;;;9.83;5.87;;;12.20;99.90;;;;;;5074715;28;20200;-79
2022/11/13 04:00:36;;;;;;;11.70;6.87;;;12.20;1.00;;;;;;5074583;28;20206;-79
2022/11/13 04:03:03;;;;;;;10.67;7.00;;;12.20;1.00;;;;;;5074812;28;20297;-79
2022/11/13 04:05:30;;;;;;;10.43;6.43;;;12.20;1.00;;;;;;5074504;28;20193;-79
2022/11/13 04:07:59;;;;;;;11.83;6.40;;;12.20;1.00;;;;;;5074134;28;20591;-79
2022/11/13 04:10:26;;;;;;;10.03;6.70;;;12.20;1.00;;;;;;5074439;28;20193;-78
2022/11/13 04:12:53;;;;;;;11.17;6.70;;;12.20;1.00;;;;;;5074323;28;20193;-78
2022/11/13 04:15:20;;;;;;;11.60;6.83;;;12.20;1.00;;;;;;5074464;28;20223;-79
2022/11/13 04:17:48;;;;;;;9.70;6.67;;;12.20;1.00;;;;;;5074530;28;20586;-78
2022/11/13 04:20:16;;;;;;;10.60;6.80;;;12.20;1.00;;;;;;5074182;28;20207;-79
2022/11/13 04:22:43;;;;;;;11.40;7.10;;;12.20;1.00;;;;;;5074132;28;20266;-78
2022/11/13 04:25:12;;;;;;;12.80;7.20;;;12.20;1.00;;;;;;5074201;28;20259;-79
2022/11/13 04:27:39;;;;;;;9.73;6.90;;;12.10;1.00;;;;;;5073971;28;20246;-78
2022/11/13 04:30:07;;;;;;;14.27;7.77;;;12.10;1.00;;;;;;5073655;28;20561;-79
2022/11/13 04:32:34;;;;;;;10.87;7.90;;;12.10;1.00;;;;;;5073244;28;20696;-79
2022/11/13 04:35:01;;;;;;;12.93;8.07;;;12.10;1.00;;;;;;5073563;28;20254;-79
2022/11/13 04:37:28;;;;;;;15.20;7.77;;;12.20;1.00;;;;;;5073289;28;20221;-79
2022/11/13 04:39:55;;;;;;;11.00;8.00;;;12.20;1.00;;;;;;5073654;28;20205;-80
2022/11/13 04:45:08;;;;;;;12.43;8.27;;;12.10;1.00;;;;;;5073498;28;20231;-79
2022/11/13 04:47:36;;;;;;;14.00;7.90;;;12.10;1.00;;;;;;5073597;28;20205;-78
2022/11/13 04:50:03;;;;;;;10.37;7.50;;;12.10;1.00;;;;;;5073620;28;20595;-78
2022/11/13 04:52:30;;;;;;;14.80;7.93;;;12.10;1.00;;;;;;5073553;28;20200;-79
2022/11/13 04:54:57;;;;;;;13.00;8.23;;;12.10;1.00;;;;;;5073208;28;20250;-78
2022/11/13 04:57:26;;;;;;;10.63;7.30;;;12.00;1.00;;;;;;5079576;28;20626;-78
2022/11/13 04:59:53;;;;;;;11.27;7.27;;;12.00;1.00;;;;;;5073432;28;20260;-78
2022/11/13 05:02:20;;;;;;;10.73;7.10;;;12.00;50.00;;;;;;5073016;28;20223;-77
2022/11/13 05:04:47;;;;;;;12.87;7.13;;;12.00;99.60;;;;;;5073409;28;20203;-78
2022/11/13 05:07:14;;;;;;;9.63;7.20;;;12.00;50.50;;;;;;5073180;28;20204;-78
2022/11/13 05:09:41;;;;;;;9.57;6.83;;;12.10;28.30;;;;;;5073192;28;20201;-78
2022/11/13 05:12:08;;;;;;;12.83;7.70;;;12.10;1.00;;;;;;5072901;28;20201;-78
2022/11/13 05:14:38;;;;;;;13.13;7.93;;;12.10;1.00;;;;;;5073143;28;20268;-77
2022/11/13 05:17:06;;;;;;;11.83;7.43;;;12.10;1.00;;;;;;5072681;28;20229;-78
2022/11/13 05:19:33;;;;;;;10.37;7.40;;;12.10;1.00;;;;;;5072786;28;20197;-78
2022/11/13 05:22:00;;;;;;;14.03;8.03;;;12.10;1.00;;;;;;5072943;28;20194;-76
2022/11/13 05:24:27;;;;;;;13.80;7.77;;;12.10;1.00;;;;;;5072617;28;20196;-78
2022/11/13 05:26:55;;;;;;;11.50;7.67;;;12.10;1.00;;;;;;5073198;28;20200;-78
2022/11/13 05:29:22;;;;;;;10.70;7.83;;;12.10;1.00;;;;;;5073159;28;20335;-77
2022/11/13 05:31:50;;;;;;;12.67;8.13;;;12.10;1.00;;;;;;5072527;28;20578;-77
2022/11/13 05:34:18;;;;;;;10.83;7.70;;;12.10;1.00;;;;;;5072871;28;20210;-78
2022/11/13 05:36:45;;;;;;;9.90;6.77;;;12.10;1.00;;;;;;5072808;28;20225;-77
2022/11/13 05:39:12;;;;;;;13.43;7.00;;;12.10;1.00;;;;;;5072749;28;20209;-78
2022/11/13 05:41:40;;;;;;;9.33;6.73;;;12.10;1.00;;;;;;5072797;28;20258;-78
2022/11/13 05:44:07;;;;;;;12.63;6.60;;;12.10;1.00;;;;;;5072605;28;20639;-77
2022/11/13 05:46:34;;;;;;;10.77;6.80;;;12.10;1.00;;;;;;5072602;28;20199;-76
2022/11/13 05:49:03;;;;;;;11.03;7.27;;;12.10;1.00;;;;;;5071789;28;20588;-77
2022/11/13 05:51:32;;;;;;;9.03;6.40;;;12.10;1.00;;;;;;5072320;28;20193;-77
2022/11/13 05:53:59;;;;;;;9.33;6.53;;;12.10;1.00;;;;;;5072566;28;20768;-78
2022/11/13 05:56:29;;;;;;;9.77;6.60;;;12.00;1.00;;;;;;5072688;28;20219;-78
2022/11/13 05:58:58;;;;;;;9.00;6.27;;;12.10;1.00;;;;;;5073079;28;20200;-78
2022/11/13 06:01:27;;;;;;;11.50;6.50;;;12.10;1.00;;;;;;5072654;28;20192;-77
2022/11/13 06:03:56;;;;;;;10.87;6.40;;;12.20;1.00;;;;;;5093564;28;20198;-80
2022/11/13 06:06:30;;;;;;;8.07;5.87;;;12.20;1.00;;;;;;5096624;28;20181;-82
2022/11/13 06:08:59;;;;;;;8.60;5.80;;;12.20;99.90;;;;;;5072477;28;20280;-78
2022/11/13 06:11:27;;;;;;;8.70;5.90;;;12.10;99.90;;;;;;5072571;28;20243;-78
2022/11/13 06:13:56;;;;;;;8.97;6.10;;;12.10;1.00;;;;;;5072762;28;20246;-79
2022/11/13 06:16:24;;;;;;;8.50;5.50;;;12.10;1.00;;;;;;5072432;28;20216;-78
2022/11/13 06:18:55;;;;;;;9.43;6.10;;;12.10;1.00;;;;;;5072402;28;20204;-78
2022/11/13 06:21:25;;;;;;;9.30;6.07;;;12.10;99.90;;;;;;5072271;28;20246;-78
2022/11/13 06:23:52;;;;;;;10.80;5.83;;;12.10;1.00;;;;;;5072410;28;20180;-78
2022/11/13 06:26:21;;;;;;;11.27;6.17;;;12.10;1.00;;;;;;5072105;28;20200;-77
2022/11/13 06:28:48;;;;;;;9.03;6.00;;;12.10;1.00;;;;;;5072303;28;20204;-78
2022/11/13 06:31:18;;;;;;;8.63;5.40;;;12.10;1.00;;;;;;5071767;28;20200;-79
2022/11/13 06:33:45;;;;;;;9.53;5.67;;;12.10;1.00;;;;;;5072417;28;20246;-79
2022/11/13 06:36:15;;;;;;;8.83;5.67;;;12.10;1.00;;;;;;5072094;28;20224;-79
2022/11/13 06:38:43;;;;;;;9.83;6.07;;;12.10;1.00;;;;;;5072270;28;20197;-78
2022/11/13 06:41:12;;;;;;;10.73;5.67;;;12.10;1.00;;;;;;5071916;28;20660;-78
2022/11/13 06:43:39;;;;;;;8.83;5.67;;;12.20;99.90;;;;;;5071862;28;20201;-78
2022/11/13 06:46:11;;;;;;;8.37;5.40;;;12.20;99.90;;;;;;5072205;28;20202;-78
2022/11/13 06:48:38;;;;;;;9.07;5.93;;;12.20;99.90;;;;;;5072149;28;20185;-79
2022/11/13 06:51:07;;;;;;;11.97;6.50;;;12.20;99.90;;;;;;5072135;28;20201;-78
2022/11/13 06:53:34;;;;;;;10.20;6.37;;;12.20;99.90;;;;;;5072099;28;20247;-79
2022/11/13 06:56:06;;;;;;;9.20;6.00;;;12.20;99.90;;;;;;5071698;28;20198;-79
2022/11/13 06:58:33;;;;;;;13.90;7.87;;;12.20;99.90;;;;;;5071845;28;20185;-78
2022/11/13 07:01:05;;;;;;;15.10;8.07;;;12.20;99.90;;;;;;5073613;28;20196;-80
2022/11/13 07:03:32;;;;;;;11.13;7.37;;;12.20;99.90;;;;;;5075889;28;20188;-79
2022/11/13 07:06:02;;;;;;;12.17;7.47;;;12.20;99.90;;;;;;5075553;28;20655;-79
2022/11/13 07:08:30;;;;;;;14.27;8.93;;;12.20;99.90;;;;;;5075915;28;20304;-79
2022/11/13 07:10:57;;;;;;;17.43;10.57;;;12.10;99.90;;;;;;5076172;28;20263;-78
2022/11/13 07:13:27;;;;;;;13.20;8.90;;;12.20;99.90;;;;;;5074814;28;20207;-79
2022/11/13 07:15:54;;;;;;;16.60;9.40;;;12.20;1.00;;;;;;5075358;28;20243;-78
2022/11/13 07:18:22;;;;;;;11.27;7.03;;;12.30;99.90;;;;;;5074892;28;20198;-79
2022/11/13 07:20:50;;;;;;;11.27;7.47;;;12.20;99.90;;;;;;5074983;28;20280;-78
2022/11/13 07:23:17;;;;;;;9.93;6.60;;;12.20;99.90;;;;;;5074726;28;20200;-79
2022/11/13 07:25:44;;;;;;;10.53;6.40;;;12.20;99.90;;;;;;5074729;28;20203;-78
2022/11/13 07:28:11;;;;;;;11.87;7.03;;;12.20;1.00;;;;;;5074975;28;20251;-79
2022/11/13 07:30:39;;;;;;;12.33;6.97;;;12.20;1.00;;;;;;5075266;28;20532;-78
2022/11/13 07:33:06;;;;;;;9.00;6.37;;;12.30;1.00;;;;;;5074412;28;20579;-79
2022/11/13 07:35:33;;;;;;;10.70;6.80;;;12.30;1.00;;;;;;5074182;28;20190;-79
2022/11/13 07:38:00;;;;;;;12.47;8.27;;;12.30;99.90;;;;;;5073690;28;20209;-78
2022/11/13 07:40:27;;;;;;;12.17;6.97;;;12.30;1.00;;;;;;5077900;28;20711;-78
2022/11/13 07:42:59;;;;;;;10.77;7.20;;;12.20;1.00;;;;;;5074999;28;20193;-78
2022/11/13 07:45:27;;;;;;;11.30;7.30;;;12.20;1.00;;;;;;5075099;28;20215;-78
2022/11/13 07:47:59;;;;;;;12.23;7.00;;;12.30;1.00;;;;;;5073679;28;20226;-79
2022/11/13 07:50:27;;;;;;;10.13;7.07;;;12.30;1.00;;;;;;5074658;28;20186;-78
2022/11/13 07:52:58;;;;;;;10.83;7.23;;;12.30;1.00;;;;;;5074819;28;20198;-78
2022/11/13 07:55:25;;;;;;;11.63;7.70;;;12.30;1.00;;;;;;5074646;28;20206;-78
2022/11/13 07:57:55;;;;;;;12.07;7.80;;;12.30;1.00;;;;;;5073976;28;20209;-78
2022/11/13 08:00:22;;;;;;;10.93;7.53;;;12.30;1.00;;;;;;5074540;28;20196;-78
2022/11/13 08:02:49;;;;;;;13.00;7.47;;;12.40;1.00;;;;;;5074028;28;20193;-79
2022/11/13 08:05:17;;;;;;;9.37;6.20;;;12.40;1.00;;;;;;5074345;28;20247;-78
2022/11/13 08:07:47;;;;;;;9.20;6.83;;;12.40;99.90;;;;;;5074595;28;20197;-79
2022/11/13 08:10:15;;;;;;;10.73;7.27;;;12.30;99.90;;;;;;5074442;28;20275;-78
2022/11/13 08:12:42;;;;;;;10.37;6.83;;;12.30;1.00;;;;;;5072905;28;20193;-78
2022/11/13 08:15:10;;;;;;;8.17;6.00;;;12.30;99.90;;;;;;5074129;28;20204;-78
2022/11/13 08:17:38;;;;;;;8.60;6.20;;;12.20;99.90;;;;;;5074440;28;20311;-77
2022/11/13 08:20:06;;;;;;;9.17;5.40;;;12.20;99.90;;;;;;5074290;28;20200;-78
2022/11/13 08:22:34;;;;;;;9.03;6.00;;;12.20;1.00;;;;;;5073974;28;20676;-78
2022/11/13 08:25:01;;;;;;;9.13;6.20;;;12.20;1.00;;;;;;5074537;28;20195;-78
2022/11/13 08:27:28;;;;;;;9.20;5.77;;;12.20;1.00;;;;;;5074308;28;20200;-78
2022/11/13 08:29:56;;;;;;;9.23;6.43;;;12.20;1.00;;;;;;5073270;28;20189;-78
2022/11/13 08:32:23;;;;;;;8.80;7.07;;;12.30;1.00;;;;;;5072242;28;20260;-79
2022/11/13 08:34:50;;;;;;;7.80;6.30;;;12.40;1.00;;;;;;5074038;28;20201;-78
2022/11/13 08:37:17;;;;;;;9.03;6.07;;;12.40;1.00;;;;;;5073894;28;20623;-77
2022/11/13 08:39:45;;;;;;;7.87;5.77;;;12.50;99.90;;;;;;5073918;28;20198;-78
2022/11/13 08:42:13;;;;;;;9.63;6.37;;;12.50;99.90;;;;;;5073450;28;20184;-78
2022/11/13 08:44:40;;;;;;;9.97;6.70;;;12.60;97.40;;;;;;5073821;28;20223;-78
2022/11/13 08:47:07;;;;;;;11.17;6.20;;;12.50;1.00;;;;;;5083551;28;20192;-80
2022/11/13 08:49:34;;;;;;;11.47;6.87;;;12.50;1.00;;;;;;5073430;28;20247;-78
2022/11/13 08:52:01;;;;;;;13.73;7.70;;;12.40;1.00;;;;;;5073633;28;20197;-77
2022/11/13 08:54:31;;;;;;;10.50;7.27;;;12.40;1.00;;;;;;5076794;28;20190;-78
2022/11/13 08:56:59;;;;;;;11.13;7.47;;;12.30;1.00;;;;;;5072803;28;20214;-79
2022/11/13 08:59:27;;;;;;;10.10;6.83;;;12.30;1.00;;;;;;5072050;28;20208;-78
2022/11/13 09:01:58;;;;;;;10.10;6.67;;;12.30;91.90;;;;;;5075219;28;20222;-81
2022/11/13 09:04:25;;;;;;;10.13;6.80;;;12.20;99.90;;;;;;5053521;28;20182;-78
2022/11/13 09:06:52;;;;;;;12.07;6.93;;;12.20;99.90;;;;;;5053440;28;20574;-78
2022/11/13 09:09:20;;;;;;;9.23;6.63;;;12.30;99.90;;;;;;5064722;28;20193;-78
2022/11/13 09:11:47;;;;;;;11.17;6.67;;;12.30;1.00;;;;;;5076520;28;20561;-79
2022/11/13 09:14:16;;;;;;;10.97;7.77;;;12.30;1.00;;;;;;5073260;28;20204;-80
2022/11/13 09:16:43;;;;;;;12.60;8.77;;;12.30;1.00;;;;;;5074254;28;20198;-77
2022/11/13 09:19:10;;;;;;;15.63;10.17;;;12.30;1.00;;;;;;5066587;28;20208;-78
2022/11/13 09:21:37;;;;;;;13.60;9.40;;;12.30;1.00;;;;;;5071912;28;20188;-79
2022/11/13 09:24:05;;;;;;;15.00;9.00;;;12.30;1.00;;;;;;5072933;28;20192;-77
2022/11/13 09:26:32;;;;;;;13.50;9.17;;;12.30;1.00;;;;;;5072444;28;20570;-78
2022/11/13 09:28:59;;;;;;;12.57;8.37;;;12.20;1.00;;;;;;5072841;28;20218;-78
2022/11/13 09:31:27;;;;;;;13.70;8.70;;;12.20;1.00;;;;;;5072454;28;20560;-78
2022/11/13 09:33:54;;;;;;;13.07;8.93;;;12.20;1.00;;;;;;5072950;28;20186;-78
2022/11/13 09:36:21;;;;;;;11.90;7.70;;;12.30;1.00;;;;;;5072676;28;20251;-78
2022/11/13 09:38:48;;;;;;;13.80;7.80;;;12.20;1.00;;;;;;5072797;28;20646;-78
2022/11/13 09:41:20;;;;;;;14.03;9.50;;;12.20;1.00;;;;;;5075812;28;20188;-77
2022/11/13 09:43:49;;;;;;;14.67;10.43;;;12.20;1.00;;;;;;5072408;28;20205;-77
2022/11/13 09:46:22;;;;;;;11.93;7.33;;;12.20;1.00;;;;;;5076852;28;20201;-81
2022/11/13 09:48:55;;;;;;;15.00;9.07;;;12.20;99.90;;;;;;5072441;28;20622;-80
2022/11/13 09:51:26;;;;;;;11.27;7.53;;;12.20;99.90;;;;;;5072749;28;20185;-80
2022/11/13 09:53:53;;;;;;;18.00;10.67;;;12.20;99.90;;;;;;5072755;28;20184;-79
2022/11/13 09:56:27;;;;;;;14.13;8.67;;;12.30;99.90;;;;;;5075345;28;20669;-79
2022/11/13 09:59:02;;;;;;;10.50;7.30;;;12.30;99.90;;;;;;5078388;28;20196;-82
2022/11/13 10:01:34;;;;;;;13.23;8.30;;;12.40;99.90;;;;;;5076519;28;20612;-79
2022/11/13 10:04:06;;;;;;;12.73;9.33;;;12.40;99.90;;;;;;5072618;28;20232;-80
2022/11/13 10:06:50;;;;;;;15.57;8.30;;;12.40;58.70;;;;;;5068011;28;20273;-80
2022/11/13 10:09:31;;;;;;;17.57;9.93;;;12.40;1.00;;;;;;5064226;28;20204;-80
2022/11/13 10:12:02;;;;;;;20.27;13.43;;;12.40;1.00;;;;;;5071901;28;20262;-79
2022/11/13 10:14:34;;;;;;;17.97;12.17;;;12.30;1.00;;;;;;5073071;28;20677;-81
2022/11/13 10:17:06;;;;;;;14.93;9.53;;;12.30;1.00;;;;;;5075463;28;20213;-79
2022/11/13 10:19:42;;;;;;;15.33;10.20;;;12.30;1.00;;;;;;5075732;28;20179;-81
2022/11/13 10:22:16;;;;;;;17.57;11.03;;;12.30;1.00;;;;;;5077271;28;20216;-81
2022/11/13 10:24:45;;;;;;;15.57;9.33;;;12.30;1.00;;;;;;5071977;28;20222;-79
2022/11/13 10:27:15;;;;;;;13.70;8.93;;;12.30;1.00;;;;;;5071930;28;20665;-78
2022/11/13 10:29:43;;;;;;;17.60;9.87;;;12.30;1.00;;;;;;5071690;28;20204;-80
2022/11/13 10:32:20;;;;;;;13.27;9.27;;;12.30;1.00;;;;;;5073938;28;20705;-80
2022/11/13 10:34:52;;;;;;;14.90;8.57;;;12.30;1.00;;;;;;5072144;28;20185;-78
2022/11/13 10:37:39;;;;;;;15.23;8.83;;;12.40;1.00;;;;;;5079812;28;20212;-80
2022/11/13 10:40:07;;;;;;;15.70;9.50;;;12.40;1.00;;;;;;5082135;28;20188;-79
2022/11/13 10:42:39;;;;;;;13.97;9.17;;;12.40;1.00;;;;;;5079283;28;20196;-79
2022/11/13 10:45:14;;;;;;;14.63;8.90;;;12.40;1.00;;;;;;5080343;28;20569;-79
2022/11/13 10:47:47;;;;;;;14.43;8.47;;;12.30;99.90;;;;;;5075552;28;20750;-78
2022/11/13 10:50:22;;;;;;;11.70;8.10;;;12.30;99.90;;;;;;5076042;28;20210;-79
2022/11/13 10:52:51;;;;;;;13.10;8.40;;;12.20;1.00;;;;;;5075338;28;20191;-77
2022/11/13 10:55:24;;;;;;;14.73;9.77;;;12.30;99.90;;;;;;5078820;28;20201;-80
2022/11/13 10:57:56;;;;;;;12.43;7.97;;;12.20;99.90;;;;;;5075589;28;20209;-79
2022/11/13 11:00:27;;;;;;;10.67;7.37;;;12.30;1.00;;;;;;5076279;28;20200;-80
2022/11/13 11:02:54;;;;;;;10.73;7.10;;;12.30;99.90;;;;;;5082735;28;20241;-79
2022/11/13 11:05:24;;;;;;;9.23;6.77;;;12.30;99.90;;;;;;5075668;28;20531;-80
2022/11/13 11:07:53;;;;;;;10.27;6.67;;;12.30;99.90;;;;;;5075681;28;20646;-80
2022/11/13 11:10:29;;;;;;;10.37;6.23;;;12.40;99.90;;;;;;5074858;28;20198;-81
2022/11/13 11:12:59;;;;;;;7.63;5.53;;;12.40;99.90;;;;;;5084078;28;20178;-84
2022/11/13 11:15:31;;;;;;;8.50;5.87;;;12.40;1.00;;;;;;5075467;28;20194;-79
2022/11/13 11:18:02;;;;;;;8.30;5.40;;;12.30;1.00;;;;;;5073165;28;20211;-79
2022/11/13 11:20:43;;;;;;;8.93;5.97;;;12.30;1.00;;;;;;5070825;28;20412;-81
2022/11/13 11:23:22;;;;;;;9.63;6.00;;;12.30;1.00;;;;;;5072336;28;20186;-80
2022/11/13 11:25:54;;;;;;;9.77;7.50;;;12.30;1.00;;;;;;5071697;28;20213;-81
2022/11/13 11:28:32;;;;;;;8.27;6.43;;;12.30;1.00;;;;;;5074007;28;20269;-80
2022/11/13 11:31:09;;;;;;;9.90;6.27;;;12.20;1.00;;;;;;5073934;28;20546;-79
2022/11/13 11:33:42;;;;;;;8.87;6.20;;;12.20;1.00;;;;;;5074192;28;20217;-79
2022/11/13 11:36:21;;;;;;;8.83;6.17;;;12.20;1.00;;;;;;5071940;28;20182;-79
2022/11/13 11:38:54;;;;;;;8.80;6.60;;;12.10;1.00;;;;;;5069631;28;20242;-78
2022/11/13 11:41:27;;;;;;;9.50;6.47;;;12.10;1.00;;;;;;5076712;28;20656;-80
2022/11/13 11:44:01;;;;;;;9.27;6.83;;;12.10;1.00;;;;;;5073066;28;20181;-81
2022/11/13 11:46:29;;;;;;;9.73;7.20;;;12.00;1.00;;;;;;5070030;28;20185;-79
2022/11/13 11:49:00;;;;;;;11.27;7.07;;;12.00;1.00;;;;;;5074165;28;20198;-79
2022/11/13 11:51:32;;;;;;;9.63;6.30;;;11.90;1.00;;;;;;5073728;28;20187;-78
2022/11/13 11:54:11;;;;;;;9.90;7.20;;;11.90;1.00;;;;;;5077032;28;20570;-79
2022/11/13 11:56:42;;;;;;;10.00;6.93;;;11.90;1.00;;;;;;5073877;28;20184;-79
2022/11/13 11:59:34;;;;;;;11.67;7.40;;;11.90;1.00;;;;;;5074196;28;20197;-79
2022/11/13 12:02:28;;;;;;;10.93;7.20;;;11.90;1.00;;;;;;5074340;28;20244;-80
2022/11/13 12:05:11;;;;;;;10.30;7.63;;;11.90;1.00;;;;;;5074293;28;20622;-79
2022/11/13 12:07:50;;;;;;;13.03;7.50;;;11.80;1.00;;;;;;5074799;28;20238;-80
2022/11/13 12:10:27;;;;;;;11.07;8.00;;;11.80;1.00;;;;;;5078303;28;20928;-80
2022/11/13 12:13:06;;;;;;;11.73;8.53;;;11.80;1.00;;;;;;5074164;28;20540;-81
2022/11/13 12:15:41;;;;;;;12.50;8.13;;;11.80;1.00;;;;;;5074146;28;20176;-79
2022/11/13 12:18:15;;;;;;;11.97;8.60;;;11.80;1.00;;;;;;5074571;28;20211;-80
2022/11/13 12:20:50;;;;;;;12.53;9.00;;;11.80;1.00;;;;;;5074075;28;20314;-81
2022/11/13 12:23:47;;;;;;;13.50;9.90;;;11.90;1.00;;;;;;5074290;28;20180;-79
2022/11/13 12:26:22;;;;;;;14.27;10.23;;;11.80;1.00;;;;;;5072148;28;20194;-79
2022/11/13 12:28:55;;;;;;;13.00;10.10;;;11.80;1.00;;;;;;5073531;28;20303;-79
2022/11/13 12:31:40;;;;;;;16.07;10.97;;;11.80;1.00;;;;;;5073776;28;20187;-78
2022/11/13 12:34:24;;;;;;;16.00;10.83;;;11.80;1.00;;;;;;5073785;28;20275;-78
2022/11/13 12:36:53;;;;;;;16.70;10.97;;;11.80;1.00;;;;;;5073999;28;20176;-78
2022/11/13 12:39:39;;;;;;;18.40;14.02;;;11.80;1.00;;;;;;5073293;28;20440;-78
2022/11/13 12:42:17;;;;;;;17.67;12.40;;;11.70;9.00;;;;;;5073674;28;20197;-78
2022/11/13 12:44:52;;;;;;;17.93;12.93;;;11.80;1.00;;;;;;5073490;28;20567;-78
2022/11/13 12:47:19;;;;;;;16.70;12.63;;;11.80;1.00;;;;;;5073413;28;20183;-78
2022/11/13 12:49:46;;;;;;;19.63;13.67;;;11.80;1.00;;;;;;5072273;28;20198;-78
2022/11/13 12:52:22;;;;;;;17.13;12.77;;;11.80;1.00;;;;;;5073559;28;20563;-78
2022/11/13 12:54:51;;;;;;;16.97;12.20;;;11.80;1.00;;;;;;5072396;28;20188;-78
2022/11/13 12:57:23;;;;;;;20.97;15.10;;;11.80;1.00;;;;;;5073367;28;20224;-79
2022/11/13 12:59:53;;;;;;;15.87;12.03;;;11.80;1.00;;;;;;5071798;28;20676;-77